createdAt,value
2017-09-07T00:01:13.985Z,13.20
2017-09-07T00:03:42.434Z,13.20
2017-09-07T00:06:10.892Z,13.10
2017-09-07T00:08:39.337Z,13.10
2017-09-07T00:11:07.954Z,13.10
2017-09-07T00:14:23.926Z,13.10
2017-09-07T00:16:52.371Z,13.10
2017-09-07T00:19:20.763Z,13.10
2017-09-07T00:21:49.245Z,13.10
2017-09-07T00:24:18.419Z,13.00
2017-09-07T00:26:46.817Z,13.00
2017-09-07T00:29:15.547Z,13.00
2017-09-07T00:31:43.937Z,13.00
2017-09-07T00:34:12.381Z,12.90
2017-09-07T00:36:42.297Z,12.90
2017-09-07T00:39:11.485Z,12.90
2017-09-07T00:41:40.627Z,12.90
2017-09-07T00:44:09.129Z,12.90
2017-09-07T00:46:37.568Z,12.90
2017-09-07T00:49:05.970Z,12.80
2017-09-07T00:51:34.803Z,12.90
2017-09-07T00:54:04.335Z,12.90
2017-09-07T00:56:32.804Z,12.80
2017-09-07T00:59:02.054Z,12.80
2017-09-07T01:01:30.455Z,12.80
2017-09-07T01:03:58.864Z,12.80
2017-09-07T01:06:27.310Z,12.80
2017-09-07T01:08:55.695Z,12.80
2017-09-07T01:11:24.157Z,12.80
2017-09-07T01:13:52.711Z,12.80
2017-09-07T01:16:21.322Z,12.80
2017-09-07T01:18:49.691Z,12.80
2017-09-07T01:21:18.217Z,12.80
2017-09-07T01:23:47.475Z,12.80
2017-09-07T01:26:15.937Z,12.80
2017-09-07T01:28:44.448Z,12.80
2017-09-07T01:31:12.901Z,12.80
2017-09-07T01:33:41.976Z,12.90
2017-09-07T01:36:10.649Z,12.80
2017-09-07T01:38:39.829Z,12.70
2017-09-07T01:41:08.238Z,12.70
2017-09-07T01:43:36.871Z,12.70
2017-09-07T01:46:05.268Z,12.70
2017-09-07T01:48:45.133Z,12.70
2017-09-07T01:51:14.322Z,12.70
2017-09-07T01:53:43.709Z,12.70
2017-09-07T01:56:12.379Z,12.70
2017-09-07T01:58:41.562Z,12.70
2017-09-07T02:01:10.030Z,12.70
2017-09-07T02:03:38.681Z,12.70
2017-09-07T02:06:07.880Z,12.60
2017-09-07T02:08:37.079Z,12.50
2017-09-07T02:11:06.558Z,12.60
2017-09-07T02:13:34.942Z,12.60
2017-09-07T02:16:03.316Z,12.50
2017-09-07T02:18:31.821Z,12.50
2017-09-07T02:21:00.212Z,12.50
2017-09-07T02:23:28.610Z,12.40
2017-09-07T02:25:57.197Z,12.50
2017-09-07T02:28:25.731Z,12.60
2017-09-07T02:30:54.943Z,12.60
2017-09-07T02:33:24.557Z,12.70
2017-09-07T02:35:53.154Z,12.60
2017-09-07T02:38:21.597Z,12.70
2017-09-07T02:40:50.848Z,12.70
2017-09-07T02:43:19.570Z,12.70
2017-09-07T02:45:48.014Z,12.70
2017-09-07T02:48:16.681Z,12.70
2017-09-07T02:50:45.074Z,12.70
2017-09-07T02:53:13.526Z,12.60
2017-09-07T02:55:43.728Z,12.60
2017-09-07T02:58:12.662Z,12.60
2017-09-07T03:00:41.083Z,12.60
2017-09-07T03:03:09.533Z,12.60
2017-09-07T03:05:37.922Z,12.60
2017-09-07T03:08:06.293Z,12.60
2017-09-07T03:10:35.020Z,12.70
2017-09-07T03:13:03.448Z,12.70
2017-09-07T03:15:31.836Z,12.70
2017-09-07T03:18:00.383Z,12.70
2017-09-07T03:20:28.783Z,12.70
2017-09-07T03:22:57.186Z,12.70
2017-09-07T03:25:25.626Z,12.70
2017-09-07T03:27:54.000Z,12.70
2017-09-07T03:30:23.142Z,12.70
2017-09-07T03:32:51.548Z,12.70
2017-09-07T03:35:19.931Z,12.70
2017-09-07T03:37:48.457Z,12.70
2017-09-07T03:40:17.103Z,12.70
2017-09-07T03:42:46.276Z,12.70
2017-09-07T03:45:14.719Z,12.70
2017-09-07T03:47:43.124Z,12.70
2017-09-07T03:50:11.533Z,12.70
2017-09-07T03:52:39.957Z,12.70
2017-09-07T03:55:08.787Z,12.70
2017-09-07T03:57:37.505Z,12.70
2017-09-07T04:00:06.649Z,12.60
2017-09-07T04:02:35.454Z,12.60
2017-09-07T04:05:03.856Z,12.70
2017-09-07T04:07:32.249Z,12.70
2017-09-07T04:10:01.583Z,12.60
2017-09-07T04:12:29.981Z,12.60
2017-09-07T04:14:58.424Z,12.60
2017-09-07T04:17:26.878Z,12.60
2017-09-07T04:19:55.278Z,12.60
2017-09-07T04:22:24.569Z,12.60
2017-09-07T04:24:54.890Z,12.60
2017-09-07T04:27:24.055Z,12.60
2017-09-07T04:29:53.208Z,12.60
2017-09-07T04:32:22.280Z,12.50
2017-09-07T04:34:50.705Z,12.60
2017-09-07T04:37:19.109Z,12.50
2017-09-07T04:39:48.355Z,12.50
2017-09-07T04:42:17.531Z,12.50
2017-09-07T04:44:45.927Z,12.50
2017-09-07T04:47:14.586Z,12.50
2017-09-07T04:49:43.004Z,12.50
2017-09-07T04:52:11.454Z,12.50
2017-09-07T04:54:41.371Z,12.50
2017-09-07T04:57:09.798Z,12.50
2017-09-07T04:59:38.384Z,12.50
2017-09-07T05:02:06.845Z,12.50
2017-09-07T05:04:35.299Z,12.50
2017-09-07T05:07:04.453Z,12.50
2017-09-07T05:09:33.277Z,12.50
2017-09-07T05:12:01.738Z,12.50
2017-09-07T05:14:30.209Z,12.60
2017-09-07T05:16:58.782Z,12.60
2017-09-07T05:19:27.176Z,12.60
2017-09-07T05:21:55.699Z,12.60
2017-09-07T05:24:24.182Z,12.60
2017-09-07T05:26:52.670Z,12.70
2017-09-07T05:29:21.098Z,12.60
2017-09-07T05:31:49.655Z,12.70
2017-09-07T05:34:19.139Z,12.70
2017-09-07T05:36:47.616Z,12.80
2017-09-07T05:39:16.336Z,12.70
2017-09-07T05:41:45.449Z,12.80
2017-09-07T05:44:14.695Z,12.90
2017-09-07T05:46:43.327Z,12.90
2017-09-07T05:49:12.564Z,13.00
2017-09-07T05:51:41.774Z,13.00
2017-09-07T05:54:10.416Z,13.00
2017-09-07T05:56:38.804Z,13.00
2017-09-07T05:59:08.057Z,13.10
2017-09-07T06:01:36.761Z,13.10
2017-09-07T06:04:05.191Z,13.10
2017-09-07T06:06:33.678Z,13.10
2017-09-07T06:09:03.399Z,13.10
2017-09-07T06:11:31.866Z,13.10
2017-09-07T06:14:00.279Z,13.10
2017-09-07T06:16:28.731Z,13.10
2017-09-07T06:18:57.970Z,13.20
2017-09-07T06:21:26.361Z,13.20
2017-09-07T06:23:54.958Z,13.30
2017-09-07T06:26:23.421Z,13.40
2017-09-07T06:28:51.852Z,13.40
2017-09-07T06:31:20.624Z,13.50
2017-09-07T06:33:49.848Z,13.40
2017-09-07T06:36:18.303Z,13.40
2017-09-07T06:38:47.117Z,13.30
2017-09-07T06:41:15.602Z,13.40
2017-09-07T06:43:44.153Z,13.50
2017-09-07T06:46:14.351Z,13.60
2017-09-07T06:48:42.782Z,13.60
2017-09-07T06:51:11.212Z,13.70
2017-09-07T06:53:39.812Z,13.80
2017-09-07T06:56:09.076Z,14.20
2017-09-07T06:58:37.490Z,14.10
2017-09-07T07:01:06.751Z,14.30
2017-09-07T07:03:35.673Z,14.20
2017-09-07T07:06:04.135Z,14.40
2017-09-07T07:08:32.650Z,14.60
2017-09-07T07:11:01.152Z,14.60
2017-09-07T07:13:29.583Z,14.60
2017-09-07T07:15:58.409Z,14.80
2017-09-07T07:18:26.776Z,15.00
2017-09-07T07:20:56.039Z,15.10
2017-09-07T07:23:25.346Z,15.10
2017-09-07T07:25:53.799Z,15.20
2017-09-07T07:28:22.196Z,15.00
2017-09-07T07:30:50.692Z,15.00
2017-09-07T07:33:19.166Z,15.30
2017-09-07T07:35:47.578Z,15.10
2017-09-07T07:38:16.483Z,15.10
2017-09-07T07:40:44.959Z,15.10
2017-09-07T07:43:14.193Z,15.30
2017-09-07T07:45:43.762Z,15.50
2017-09-07T07:48:12.265Z,16.00
2017-09-07T07:50:40.733Z,16.10
2017-09-07T07:53:09.447Z,16.40
2017-09-07T07:55:37.853Z,16.80
2017-09-07T07:58:06.339Z,16.70
2017-09-07T08:00:34.897Z,16.70
2017-09-07T08:03:03.442Z,16.50
2017-09-07T08:05:32.200Z,16.20
2017-09-07T08:08:01.622Z,16.20
2017-09-07T08:10:30.116Z,16.00
2017-09-07T08:12:58.529Z,15.90
2017-09-07T08:15:28.604Z,15.80
2017-09-07T08:17:56.990Z,15.80
2017-09-07T08:20:25.474Z,15.90
2017-09-07T08:22:55.185Z,16.20
2017-09-07T08:25:23.619Z,16.20
2017-09-07T08:27:52.685Z,16.00
2017-09-07T08:30:21.422Z,15.90
2017-09-07T08:32:50.778Z,16.00
2017-09-07T08:35:19.362Z,16.20
2017-09-07T08:37:47.924Z,16.20
2017-09-07T08:40:16.359Z,16.30
2017-09-07T08:42:45.573Z,16.60
2017-09-07T08:45:15.019Z,17.50
2017-09-07T08:47:44.390Z,17.50
2017-09-07T08:50:12.879Z,17.80
2017-09-07T08:52:41.625Z,17.70
2017-09-07T08:55:10.990Z,18.30
2017-09-07T08:57:40.620Z,18.30
2017-09-07T09:00:09.094Z,18.50
2017-09-07T09:02:37.570Z,18.30
2017-09-07T09:05:07.221Z,18.30
2017-09-07T09:07:37.206Z,17.40
2017-09-07T09:10:06.383Z,17.30
2017-09-07T09:12:35.433Z,17.30
2017-09-07T09:15:04.122Z,17.20
2017-09-07T09:17:32.557Z,17.60
2017-09-07T09:20:01.076Z,17.60
2017-09-07T09:22:30.274Z,17.90
2017-09-07T09:24:59.058Z,17.90
2017-09-07T09:27:28.231Z,18.90
2017-09-07T09:29:56.795Z,18.90
2017-09-07T09:32:25.257Z,19.40
2017-09-07T09:34:53.665Z,19.80
2017-09-07T09:37:22.846Z,19.60
2017-09-07T09:39:52.112Z,19.40
2017-09-07T09:42:21.372Z,19.60
2017-09-07T09:44:50.242Z,19.50
2017-09-07T09:47:24.087Z,19.20
2017-09-07T09:49:56.390Z,19.20
2017-09-07T09:52:25.281Z,19.20
2017-09-07T09:54:53.731Z,19.20
2017-09-07T09:57:23.128Z,19.10
2017-09-07T09:59:53.371Z,19.00
2017-09-07T10:02:23.567Z,18.90
2017-09-07T10:04:52.845Z,18.90
2017-09-07T10:07:22.079Z,18.70
2017-09-07T10:09:50.730Z,18.70
2017-09-07T10:12:19.316Z,18.40
2017-09-07T10:14:47.941Z,18.50
2017-09-07T10:17:16.387Z,18.60
2017-09-07T10:19:45.871Z,18.20
2017-09-07T10:22:16.046Z,18.20
2017-09-07T10:24:44.475Z,18.20
2017-09-07T10:27:14.406Z,18.40
2017-09-07T10:29:43.583Z,18.80
2017-09-07T10:32:11.995Z,18.80
2017-09-07T10:34:42.501Z,19.40
2017-09-07T10:37:14.297Z,19.40
2017-09-07T10:39:42.878Z,19.30
2017-09-07T10:42:11.301Z,19.50
2017-09-07T10:44:39.729Z,19.20
2017-09-07T10:47:08.789Z,18.70
2017-09-07T10:49:38.560Z,18.30
2017-09-07T10:52:07.252Z,18.30
2017-09-07T10:54:35.762Z,18.70
2017-09-07T10:57:04.952Z,19.60
2017-09-07T10:59:35.697Z,20.50
2017-09-07T11:02:05.483Z,20.90
2017-09-07T11:04:33.899Z,20.00
2017-09-07T11:07:05.091Z,19.60
2017-09-07T11:09:33.963Z,19.60
2017-09-07T11:12:03.837Z,19.30
2017-09-07T11:14:32.440Z,19.20
2017-09-07T11:17:01.288Z,19.30
2017-09-07T11:19:30.990Z,19.30
2017-09-07T11:22:00.446Z,20.00
2017-09-07T11:24:30.810Z,19.60
2017-09-07T11:27:00.215Z,19.50
2017-09-07T11:29:29.832Z,18.90
2017-09-07T11:32:00.813Z,18.60
2017-09-07T11:34:29.525Z,19.20
2017-09-07T11:36:58.017Z,19.80
2017-09-07T11:39:27.926Z,19.80
2017-09-07T11:41:56.628Z,19.20
2017-09-07T11:44:25.861Z,18.60
2017-09-07T11:46:55.184Z,18.40
2017-09-07T11:49:23.616Z,18.40
2017-09-07T11:51:52.332Z,18.40
2017-09-07T11:54:21.151Z,18.40
2017-09-07T11:56:49.588Z,18.40
2017-09-07T11:59:18.796Z,18.40
2017-09-07T12:01:47.486Z,18.60
2017-09-07T12:04:15.911Z,19.30
2017-09-07T12:06:45.076Z,20.80
2017-09-07T12:09:14.306Z,21.50
2017-09-07T12:11:42.695Z,21.40
2017-09-07T12:14:11.467Z,21.50
2017-09-07T12:16:40.858Z,21.70
2017-09-07T12:19:09.334Z,21.00
2017-09-07T12:21:39.155Z,20.30
2017-09-07T12:24:08.062Z,20.30
2017-09-07T12:26:36.476Z,19.90
2017-09-07T12:29:04.902Z,20.00
2017-09-07T12:31:33.841Z,19.50
2017-09-07T12:34:03.823Z,19.20
2017-09-07T12:36:33.091Z,19.20
2017-09-07T12:39:03.075Z,20.20
2017-09-07T12:41:31.593Z,19.80
2017-09-07T12:44:01.209Z,19.40
2017-09-07T12:46:29.924Z,18.90
2017-09-07T12:48:58.366Z,18.80
2017-09-07T12:51:27.686Z,18.70
2017-09-07T12:53:56.136Z,18.60
2017-09-07T12:56:24.574Z,18.40
2017-09-07T12:58:53.057Z,18.30
2017-09-07T13:01:23.247Z,18.00
2017-09-07T13:03:51.734Z,17.90
2017-09-07T13:06:20.160Z,18.10
2017-09-07T13:08:48.630Z,18.30
2017-09-07T13:11:17.916Z,18.30
2017-09-07T13:13:46.325Z,18.40
2017-09-07T13:16:14.948Z,18.30
2017-09-07T13:18:43.389Z,18.30
2017-09-07T13:21:11.802Z,18.40
2017-09-07T13:23:41.294Z,19.20
2017-09-07T13:26:10.495Z,19.10
2017-09-07T13:28:40.630Z,20.00
2017-09-07T13:31:09.053Z,19.90
2017-09-07T13:33:37.469Z,19.90
2017-09-07T13:36:05.870Z,19.70
2017-09-07T13:38:34.531Z,19.40
2017-09-07T13:41:03.893Z,19.00
2017-09-07T13:43:32.407Z,19.00
2017-09-07T13:46:00.927Z,19.00
2017-09-07T13:48:29.408Z,19.00
2017-09-07T13:50:58.694Z,19.00
2017-09-07T13:53:27.145Z,19.00
2017-09-07T13:55:55.561Z,19.50
2017-09-07T13:58:23.983Z,19.70
2017-09-07T14:00:52.810Z,19.80
2017-09-07T14:03:22.964Z,19.80
2017-09-07T14:05:52.818Z,19.80
2017-09-07T14:08:22.265Z,19.40
2017-09-07T14:10:51.022Z,19.40
2017-09-07T14:13:19.492Z,19.40
2017-09-07T14:15:48.740Z,19.30
2017-09-07T14:18:17.321Z,19.40
2017-09-07T14:20:45.787Z,19.40
2017-09-07T14:23:14.747Z,19.70
2017-09-07T14:25:43.228Z,20.40
2017-09-07T14:28:11.841Z,20.50
2017-09-07T14:30:41.246Z,20.30
2017-09-07T14:33:09.691Z,20.30
2017-09-07T14:35:38.326Z,20.00
2017-09-07T14:38:06.848Z,19.40
2017-09-07T14:40:36.040Z,19.00
2017-09-07T14:43:04.857Z,19.00
2017-09-07T14:45:34.246Z,18.90
2017-09-07T14:48:03.523Z,18.90
2017-09-07T14:50:31.934Z,18.90
2017-09-07T14:53:01.672Z,18.90
2017-09-07T14:55:30.153Z,18.90
2017-09-07T14:57:58.740Z,18.60
2017-09-07T15:00:29.475Z,18.40
2017-09-07T15:02:57.921Z,18.40
2017-09-07T15:05:26.386Z,18.30
2017-09-07T15:07:55.223Z,18.40
2017-09-07T15:10:24.886Z,18.60
2017-09-07T15:12:53.578Z,18.60
2017-09-07T15:15:22.465Z,18.50
2017-09-07T15:17:50.908Z,18.40
2017-09-07T15:20:21.741Z,18.40
2017-09-07T15:22:50.360Z,18.40
2017-09-07T15:25:18.806Z,18.40
2017-09-07T15:27:47.282Z,18.20
2017-09-07T15:30:16.118Z,18.30
2017-09-07T15:32:44.621Z,18.20
2017-09-07T15:35:13.191Z,18.10
2017-09-07T15:37:46.047Z,18.00
2017-09-07T15:40:14.531Z,18.00
2017-09-07T15:42:44.067Z,18.00
2017-09-07T15:45:13.348Z,17.90
2017-09-07T15:47:42.182Z,17.90
2017-09-07T15:50:10.975Z,17.90
2017-09-07T15:52:45.569Z,18.00
2017-09-07T15:55:14.695Z,17.80
2017-09-07T15:57:43.521Z,17.70
2017-09-07T16:00:12.017Z,17.60
2017-09-07T16:02:44.497Z,17.50
2017-09-07T16:05:14.081Z,17.40
2017-09-07T16:07:43.315Z,17.40
2017-09-07T16:10:12.039Z,17.40
2017-09-07T16:12:40.439Z,17.50
2017-09-07T16:15:08.864Z,17.50
2017-09-07T16:17:38.192Z,17.50
2017-09-07T16:20:06.602Z,17.40
2017-09-07T16:22:35.295Z,17.50
2017-09-07T16:25:04.666Z,17.60
2017-09-07T16:27:33.957Z,17.60
2017-09-07T16:30:02.514Z,17.60
2017-09-07T16:32:32.874Z,17.70
2017-09-07T16:35:02.190Z,17.70
2017-09-07T16:37:30.692Z,17.70
2017-09-07T16:40:01.210Z,17.50
2017-09-07T16:42:29.642Z,17.50
2017-09-07T16:44:58.851Z,17.30
2017-09-07T16:47:28.631Z,17.20
2017-09-07T16:49:58.331Z,17.10
2017-09-07T16:52:27.538Z,17.10
2017-09-07T16:54:57.635Z,17.10
2017-09-07T16:57:26.315Z,17.00
2017-09-07T16:59:55.585Z,17.20
2017-09-07T17:02:24.565Z,17.10
2017-09-07T17:04:53.766Z,17.00
2017-09-07T17:07:37.355Z,17.00
2017-09-07T17:10:05.973Z,16.90
2017-09-07T17:12:34.360Z,16.90
2017-09-07T17:15:03.601Z,16.90
2017-09-07T17:17:34.551Z,16.90
2017-09-07T17:20:03.816Z,16.90
2017-09-07T17:22:33.202Z,16.80
2017-09-07T17:25:02.262Z,16.80
2017-09-07T17:27:31.755Z,16.70
2017-09-07T17:30:00.301Z,16.70
2017-09-07T17:32:28.924Z,16.70
2017-09-07T17:34:57.362Z,16.60
2017-09-07T17:37:26.154Z,16.60
2017-09-07T17:39:55.345Z,16.60
2017-09-07T17:42:23.775Z,16.60
2017-09-07T17:44:55.288Z,16.50
2017-09-07T17:47:23.773Z,16.50
2017-09-07T17:49:52.602Z,16.50
2017-09-07T17:52:21.178Z,16.50
2017-09-07T17:54:50.381Z,16.50
2017-09-07T17:57:18.855Z,16.40
2017-09-07T17:59:48.087Z,16.40
2017-09-07T18:02:16.497Z,16.40
2017-09-07T18:04:45.021Z,16.30
2017-09-07T18:07:13.503Z,16.30
2017-09-07T18:09:46.770Z,16.30
2017-09-07T18:12:16.762Z,16.40
2017-09-07T18:14:45.268Z,16.30
2017-09-07T18:17:14.096Z,16.30
2017-09-07T18:19:43.357Z,16.20
2017-09-07T18:22:12.240Z,16.20
2017-09-07T18:24:40.670Z,16.20
2017-09-07T18:27:10.319Z,16.20
2017-09-07T18:29:38.778Z,16.20
2017-09-07T18:32:07.200Z,16.20
2017-09-07T18:34:35.762Z,16.20
2017-09-07T18:37:04.190Z,16.20
2017-09-07T18:39:32.702Z,16.20
2017-09-07T18:42:01.428Z,16.20
2017-09-07T18:44:30.315Z,16.20
2017-09-07T18:46:59.526Z,16.00
2017-09-07T18:49:28.184Z,16.00
2017-09-07T18:51:56.575Z,15.90
2017-09-07T18:54:25.002Z,15.90
2017-09-07T18:56:54.580Z,15.80
2017-09-07T18:59:23.018Z,15.80
2017-09-07T19:01:51.787Z,15.80
2017-09-07T19:04:20.362Z,15.70
2017-09-07T19:06:48.771Z,15.70
2017-09-07T19:09:17.446Z,15.70
2017-09-07T19:11:46.057Z,15.60
2017-09-07T19:14:15.018Z,15.60
2017-09-07T19:16:43.489Z,15.60
2017-09-07T19:19:12.727Z,15.60
2017-09-07T19:21:41.121Z,15.60
2017-09-07T19:24:09.501Z,15.50
2017-09-07T19:26:38.506Z,15.50
2017-09-07T19:29:07.085Z,15.50
2017-09-07T19:31:36.246Z,15.50
2017-09-07T19:34:05.003Z,15.50
2017-09-07T19:36:34.179Z,15.50
2017-09-07T19:39:02.659Z,15.50
2017-09-07T19:41:31.274Z,15.50
2017-09-07T19:44:00.427Z,15.50
2017-09-07T19:46:28.891Z,15.50
2017-09-07T19:48:57.490Z,15.50
2017-09-07T19:51:27.370Z,15.50
2017-09-07T19:53:55.775Z,15.50
2017-09-07T19:56:24.754Z,15.60
2017-09-07T19:58:53.885Z,15.50
2017-09-07T20:01:22.318Z,15.50
2017-09-07T20:03:50.943Z,15.50
2017-09-07T20:06:19.342Z,15.50
2017-09-07T20:08:47.754Z,15.50
2017-09-07T20:11:16.504Z,15.50
2017-09-07T20:13:44.922Z,15.50
2017-09-07T20:16:13.665Z,15.40
2017-09-07T20:18:42.149Z,15.40
2017-09-07T20:21:11.329Z,15.40
2017-09-07T20:23:39.758Z,15.40
2017-09-07T20:26:08.703Z,15.40
2017-09-07T20:28:38.020Z,15.40
2017-09-07T20:31:07.876Z,15.40
2017-09-07T20:33:36.337Z,15.40
2017-09-07T20:36:04.738Z,15.40
2017-09-07T20:38:33.150Z,15.30
2017-09-07T20:41:01.725Z,15.30
2017-09-07T20:43:30.149Z,15.30
2017-09-07T20:45:58.539Z,15.30
2017-09-07T20:48:27.655Z,15.30
2017-09-07T20:50:56.063Z,15.30
2017-09-07T20:53:24.438Z,15.30
2017-09-07T20:55:52.993Z,15.30
2017-09-07T20:58:21.472Z,15.20
2017-09-07T21:00:50.781Z,15.20
2017-09-07T21:03:20.053Z,15.20
2017-09-07T21:05:49.246Z,15.20
2017-09-07T21:08:17.645Z,15.20
2017-09-07T21:10:46.383Z,15.20
2017-09-07T21:13:14.797Z,15.20
2017-09-07T21:15:43.195Z,15.20
2017-09-07T21:18:11.963Z,15.10
2017-09-07T21:20:40.340Z,15.10
2017-09-07T21:23:08.755Z,15.10
2017-09-07T21:25:37.197Z,15.10
2017-09-07T21:28:05.574Z,15.10
2017-09-07T21:30:34.339Z,15.10
2017-09-07T21:33:02.943Z,15.10
2017-09-07T21:35:31.348Z,15.10
2017-09-07T21:37:59.729Z,15.10
2017-09-07T21:40:28.439Z,15.10
2017-09-07T21:42:56.863Z,15.10
2017-09-07T21:45:25.288Z,15.10
2017-09-07T21:47:53.830Z,15.10
2017-09-07T21:50:22.215Z,15.10
2017-09-07T21:52:50.585Z,15.10
2017-09-07T21:55:19.435Z,15.10
2017-09-07T21:57:47.792Z,15.10
2017-09-07T22:00:16.998Z,15.10
2017-09-07T22:02:45.813Z,15.10
2017-09-07T22:05:14.230Z,15.10
2017-09-07T22:07:43.481Z,15.10
2017-09-07T22:10:11.997Z,15.10
2017-09-07T22:12:41.189Z,15.00
2017-09-07T22:15:09.617Z,15.00
2017-09-07T22:17:38.315Z,15.10
2017-09-07T22:20:06.743Z,15.00
2017-09-07T22:22:35.113Z,15.00
2017-09-07T22:25:04.388Z,15.00
2017-09-07T22:27:32.775Z,15.00
2017-09-07T22:30:01.137Z,15.00
2017-09-07T22:32:29.839Z,15.00
2017-09-07T22:34:58.333Z,15.00
2017-09-07T22:37:27.500Z,15.00
2017-09-07T22:39:56.132Z,15.00
2017-09-07T22:42:24.668Z,15.00
2017-09-07T22:44:53.404Z,15.00
2017-09-07T22:47:22.123Z,14.90
2017-09-07T22:49:50.662Z,14.90
2017-09-07T22:52:19.976Z,15.00
2017-09-07T22:54:48.857Z,14.90
2017-09-07T22:57:17.544Z,14.90
2017-09-07T22:59:46.907Z,14.90
2017-09-07T23:02:15.739Z,14.90
2017-09-07T23:04:44.088Z,14.90
2017-09-07T23:07:12.447Z,14.90
2017-09-07T23:09:41.426Z,14.90
2017-09-07T23:12:09.779Z,14.90
2017-09-07T23:14:38.166Z,14.80
2017-09-07T23:17:06.606Z,14.80
2017-09-07T23:19:35.753Z,14.80
2017-09-07T23:22:04.168Z,14.80
2017-09-07T23:24:32.763Z,14.80
2017-09-07T23:27:01.960Z,14.80
2017-09-07T23:29:30.334Z,14.80
2017-09-07T23:31:59.026Z,14.80
2017-09-07T23:34:28.215Z,14.80
2017-09-07T23:36:56.712Z,14.80
2017-09-07T23:39:25.938Z,14.80
2017-09-07T23:41:54.318Z,14.80
2017-09-07T23:44:22.699Z,14.80
2017-09-07T23:46:51.208Z,14.80
2017-09-07T23:49:19.579Z,14.80
2017-09-07T23:51:47.959Z,14.80
2017-09-07T23:54:16.663Z,14.70
2017-09-07T23:56:45.054Z,14.70
2017-09-07T23:59:13.473Z,14.70
